Quick Links (Output Below):   Max & Min Temps   /   Climate Reports   /   Zone Forecasts
River Forecasts   /   Forestry Forecasts   /   Aviation Forecasts   /   Radars   /   Features

Terminal Aerodrome Forecast (El Dorado)

Pick a Site:
Arkadelphia | El Dorado | Fayetteville | Fort Smith | Harrison | Highfill | Hot Springs | Jonesboro
Little Rock | Monticello | Mountain Home | Pine Bluff | Texarkana
 Forecast 

KELD 201720Z 2018/2118 VRB03KT P6SM SCT050
     FM210000 00000KT P6SM SCT050
     FM211400 05004KT P6SM SKC=


 Latest METARs (Observations) 
How to Decode METARs
18Z KELD 201753Z AUTO 00000KT 10SM CLR 22/11 A3009 RMK AO2 SLP188
         T02220106 10222 20072 58013
         
17Z KELD 201653Z AUTO VRB03KT 10SM CLR 21/11 A3012 RMK AO2 SLP196
         T02060106
         
16Z KELD 201553Z AUTO VRB04KT 10SM CLR 19/10 A3013 RMK AO2 SLP200
         T01940100
         
15Z KELD 201453Z AUTO 00000KT 10SM CLR 16/11 A3013 RMK AO2 SLP203
         T01610106 51014
         
14Z KELD 201353Z AUTO 00000KT 10SM CLR 12/11 A3012 RMK AO2 SLP199
         T01220111
         
13Z KELD 201253Z AUTO 00000KT 10SM CLR 08/07 A3010 RMK AO2 SLP193
         T00780072
         
12Z KELD 201153Z AUTO 00000KT 10SM CLR 07/06 A3009 RMK AO2 SLP189
         T00720061 10094 20072 53007
         
11Z KELD 201053Z AUTO 00000KT 10SM CLR 08/07 A3008 RMK AO2 SLP185
         T00780067
         
10Z KELD 200953Z AUTO 00000KT 10SM CLR 08/07 A3007 RMK AO2 SLP180
         T00780067
         
09Z KELD 200853Z AUTO 00000KT 10SM CLR 08/07 A3007 RMK AO2 SLP181
         T00780072 58006
         
***** Today's Observations (Above) *****


Back to Main Page
http://www.srh.noaa.gov/lzk/qfcst.php

USA.gov is the U.S. government's official web portal to all federal, state and local government web resources and services.